Time;durP1;ratioP1;P1;durP2;ratioP2;P2;SDS_P1;SDS_P2;PMS_P1;PMS_P2;Temp;Humidity;BMP_temperature;BMP_pressure;BME280_temperature;BME280_humidity;BME280_pressure;Samples;Min_cycle;Max_cycle;Signal;HPM_P1;HPM_P2
2021/01/09 00:01:41;;;;;;;50.28;27.30;;;;;;;1.82;82.81;98757.05;1695605;85;21112;-59
2021/01/09 00:04:09;;;;;;;43.50;25.68;;;;;;;1.80;82.95;98756.11;1695296;85;21134;-59
2021/01/09 00:06:39;;;;;;;53.87;28.77;;;;;;;1.78;83.09;98759.02;1695349;85;21099;-59
2021/01/09 00:09:32;;;;;;;55.23;30.23;;;;;;;1.76;83.20;98764.44;1695521;84;21087;-59
2021/01/09 00:12:00;;;;;;;47.23;26.20;;;;;;;1.74;83.18;98757.13;1695508;85;21205;-58
2021/01/09 00:14:28;;;;;;;44.88;26.05;;;;;;;1.74;83.49;98766.04;1695729;84;21063;-58
2021/01/09 00:16:56;;;;;;;46.55;26.25;;;;;;;1.78;83.50;98760.29;1695327;85;21083;-58
2021/01/09 00:19:24;;;;;;;46.58;26.95;;;;;;;1.82;83.53;98762.14;1695375;85;21063;-58
2021/01/09 00:21:52;;;;;;;50.25;27.55;;;;;;;1.89;83.42;98763.28;1695403;85;21201;-58
2021/01/09 00:24:20;;;;;;;49.33;27.58;;;;;;;1.91;83.39;98765.08;1695493;85;21050;-58
2021/01/09 00:26:47;;;;;;;49.53;26.93;;;;;;;1.92;83.26;98760.45;1695394;85;21091;-58
2021/01/09 00:29:15;;;;;;;49.20;28.50;;;;;;;1.91;83.40;98761.67;1664042;86;21217;-58
2021/01/09 00:31:43;;;;;;;48.28;27.32;;;;;;;1.95;83.33;98751.66;1671283;84;21192;-58
2021/01/09 00:34:11;;;;;;;47.62;26.95;;;;;;;1.95;83.27;98758.43;1635878;88;21083;-58
2021/01/09 00:36:48;;;;;;;45.17;26.42;;;;;;;1.97;83.29;98763.59;1671341;85;21517;-58
2021/01/09 00:39:16;;;;;;;46.05;26.05;;;;;;;2.00;83.28;98764.98;1635945;88;21224;-60
2021/01/09 00:41:44;;;;;;;50.55;27.82;;;;;;;2.00;83.08;98767.13;1671545;86;21205;-59
2021/01/09 00:44:11;;;;;;;45.60;25.20;;;;;;;1.99;83.22;98761.99;1635850;88;21076;-60
2021/01/09 00:46:39;;;;;;;48.15;29.10;;;;;;;2.03;83.27;98760.02;1671373;84;21232;-60
2021/01/09 00:49:07;;;;;;;51.55;28.07;;;;;;;2.07;83.27;98761.90;1635696;88;21218;-59
2021/01/09 00:51:35;;;;;;;48.17;27.77;;;;;;;2.11;83.05;98761.20;1671282;86;21061;-60
2021/01/09 00:54:03;;;;;;;54.95;28.27;;;;;;;2.10;82.98;98754.38;1635954;88;21222;-60
2021/01/09 00:56:30;;;;;;;51.63;28.55;;;;;;;2.12;83.02;98761.68;1671439;86;21081;-59
2021/01/09 00:58:58;;;;;;;51.75;28.30;;;;;;;2.09;82.89;98752.66;1635804;88;21111;-59
2021/01/09 01:01:25;;;;;;;54.73;29.60;;;;;;;2.07;82.80;98756.39;1671334;86;21086;-60
2021/01/09 01:03:53;;;;;;;55.50;29.48;;;;;;;2.03;83.03;98754.52;1635780;88;21289;-59
2021/01/09 01:06:24;;;;;;;55.28;29.45;;;;;;;2.00;83.14;98754.81;1671344;86;21034;-59
2021/01/09 01:08:53;;;;;;;57.80;30.95;;;;;;;1.98;83.16;98752.19;1635806;88;21241;-59
2021/01/09 01:11:27;;;;;;;53.25;28.40;;;;;;;1.97;83.33;98748.33;1671342;84;21058;-59
2021/01/09 01:13:57;;;;;;;52.80;30.72;;;;;;;1.97;83.30;98741.97;1635710;88;21206;-59
2021/01/09 01:16:25;;;;;;;53.15;29.55;;;;;;;1.98;83.51;98747.09;1671307;86;21092;-59
2021/01/09 01:18:53;;;;;;;51.15;29.32;;;;;;;1.95;83.45;98745.70;1635761;88;21209;-59
2021/01/09 01:21:20;;;;;;;49.55;30.48;;;;;;;1.94;83.59;98742.30;1671225;84;21197;-58
2021/01/09 01:23:48;;;;;;;50.95;28.02;;;;;;;1.95;83.74;98741.48;1635670;88;21064;-59
2021/01/09 01:26:17;;;;;;;49.10;28.20;;;;;;;2.01;83.74;98741.27;1671458;84;21220;-59
2021/01/09 01:28:45;;;;;;;52.27;28.38;;;;;;;2.07;83.61;98742.81;1635712;88;21238;-59
2021/01/09 01:31:12;;;;;;;46.48;27.00;;;;;;;2.09;83.70;98741.20;1671312;86;21081;-59
2021/01/09 01:33:41;;;;;;;47.08;27.25;;;;;;;2.14;83.73;98742.26;1635799;88;21044;-59
2021/01/09 01:36:10;;;;;;;46.77;27.40;;;;;;;2.18;83.56;98740.28;1671433;86;21062;-59
2021/01/09 01:38:38;;;;;;;48.80;27.65;;;;;;;2.18;83.50;98731.38;1635860;88;21209;-60
2021/01/09 01:41:09;;;;;;;40.88;24.70;;;;;;;2.17;83.47;98725.42;1671166;84;21185;-58
2021/01/09 01:43:38;;;;;;;46.92;27.60;;;;;;;2.17;83.46;98728.37;1635845;88;21107;-59
2021/01/09 01:46:08;;;;;;;44.13;26.85;;;;;;;2.16;83.43;98725.34;1671312;84;21184;-59
2021/01/09 01:48:38;;;;;;;47.53;28.20;;;;;;;2.18;83.49;98726.28;1663991;86;21173;-58
2021/01/09 01:51:06;;;;;;;47.15;27.95;;;;;;;2.17;83.44;98727.09;1671205;84;21204;-58
2021/01/09 01:53:34;;;;;;;49.20;27.70;;;;;;;2.18;83.48;98726.28;1635742;88;21122;-59
2021/01/09 01:56:03;;;;;;;45.98;27.07;;;;;;;2.19;83.57;98720.41;1671219;86;21197;-58
2021/01/09 01:58:31;;;;;;;49.63;28.98;;;;;;;2.26;83.53;98721.08;1635676;88;21064;-59
2021/01/09 02:00:58;;;;;;;47.25;27.62;;;;;;;2.30;83.37;98717.86;1671387;86;21192;-58
2021/01/09 02:03:26;;;;;;;44.60;26.57;;;;;;;2.28;83.22;98722.02;1630063;88;21261;-58
2021/01/09 02:06:00;;;;;;;48.60;27.70;;;;;;;2.25;83.35;98715.95;1681873;85;21063;-58
2021/01/09 02:08:32;;;;;;;50.08;27.35;;;;;;;2.28;83.46;98714.79;1681683;85;21449;-58
2021/01/09 02:11:06;;;;;;;48.35;27.25;;;;;;;2.31;83.24;98708.13;1681849;84;21194;-58
2021/01/09 02:13:44;;;;;;;44.93;26.23;;;;;;;2.31;83.26;98710.67;1678882;85;21052;-59
2021/01/09 02:16:14;;;;;;;49.00;27.73;;;;;;;2.28;83.28;98708.02;1681996;85;21618;-59
2021/01/09 02:18:43;;;;;;;46.98;27.40;;;;;;;2.27;83.25;98705.02;1681977;85;21072;-58
2021/01/09 02:21:32;;;;;;;46.98;26.57;;;;;;;2.31;83.39;98709.41;1658120;85;21112;-58
2021/01/09 02:24:00;;;;;;;46.25;26.80;;;;;;;2.36;83.38;98704.09;1670624;85;21084;-58
2021/01/09 02:26:28;;;;;;;43.35;25.12;;;;;;;2.37;83.28;98704.57;1681826;84;21087;-59
2021/01/09 02:28:56;;;;;;;45.40;26.52;;;;;;;2.37;83.33;98698.20;1681747;85;21036;-59
2021/01/09 02:31:25;;;;;;;50.25;27.17;;;;;;;2.39;83.26;98696.59;1681645;85;21238;-58
2021/01/09 02:33:53;;;;;;;50.95;28.90;;;;;;;2.36;83.24;98704.09;1682049;84;21474;-58
2021/01/09 02:36:21;;;;;;;46.60;27.17;;;;;;;2.34;83.40;98699.36;1682013;85;21059;-59
2021/01/09 02:38:49;;;;;;;41.60;24.70;;;;;;;2.34;83.36;98701.91;1682197;84;21084;-58
2021/01/09 02:41:19;;;;;;;47.10;26.68;;;;;;;2.27;83.34;98697.79;1681998;85;21182;-58
2021/01/09 02:43:46;;;;;;;45.73;26.70;;;;;;;2.20;83.60;98696.67;1681850;85;21231;-58
2021/01/09 02:46:14;;;;;;;41.88;25.95;;;;;;;2.16;83.72;98690.98;1682087;84;21253;-59
2021/01/09 02:48:42;;;;;;;45.25;26.45;;;;;;;2.21;83.95;98694.57;1681820;85;21206;-58
2021/01/09 02:51:10;;;;;;;45.15;25.17;;;;;;;2.25;83.94;98692.63;1681788;84;21099;-58
2021/01/09 02:53:38;;;;;;;46.13;27.10;;;;;;;2.31;83.90;98697.08;1682105;84;21075;-59
2021/01/09 02:56:05;;;;;;;45.20;26.97;;;;;;;2.31;83.77;98692.85;1681821;85;21069;-59
2021/01/09 02:58:33;;;;;;;45.85;26.62;;;;;;;2.27;83.62;98699.06;1681840;85;21226;-58
2021/01/09 03:01:01;;;;;;;42.35;24.05;;;;;;;2.22;83.93;98697.60;1681862;85;21068;-59
2021/01/09 03:03:29;;;;;;;50.85;27.15;;;;;;;2.20;83.92;98697.08;1676236;85;21102;-59
2021/01/09 03:05:57;;;;;;;45.78;25.05;;;;;;;2.18;83.98;98699.55;1664944;85;21087;-58
2021/01/09 03:08:24;;;;;;;44.45;26.45;;;;;;;2.20;84.09;98696.67;1664918;86;21173;-60
2021/01/09 03:10:52;;;;;;;42.95;26.27;;;;;;;2.24;84.09;98704.91;1665003;85;21192;-59
2021/01/09 03:13:20;;;;;;;44.60;26.45;;;;;;;2.23;83.78;98703.15;1664838;85;21197;-59
2021/01/09 03:15:48;;;;;;;44.23;26.35;;;;;;;2.13;84.17;98699.77;1665067;85;21066;-58
2021/01/09 03:18:16;;;;;;;48.55;26.05;;;;;;;2.14;84.33;98693.89;1664991;85;21055;-58
2021/01/09 03:20:43;;;;;;;47.23;27.93;;;;;;;2.17;84.37;98695.28;1664807;85;21059;-59
2021/01/09 03:23:11;;;;;;;50.58;26.48;;;;;;;2.22;84.39;98696.33;1664878;86;21063;-58
2021/01/09 03:25:39;;;;;;;49.00;27.67;;;;;;;2.22;84.40;98693.78;1664882;85;21070;-58
2021/01/09 03:28:08;;;;;;;53.63;29.10;;;;;;;2.25;84.50;98695.17;1665059;86;21503;-59
2021/01/09 03:30:35;;;;;;;48.78;28.57;;;;;;;2.30;84.46;98692.81;1664871;86;21203;-59
2021/01/09 03:33:04;;;;;;;48.25;27.70;;;;;;;2.36;84.40;98693.90;1665101;86;21027;-59
2021/01/09 03:35:31;;;;;;;49.20;28.83;;;;;;;2.44;84.34;98693.33;1664937;86;21201;-59
2021/01/09 03:37:59;;;;;;;45.78;25.75;;;;;;;2.49;84.17;98698.20;1665054;86;21216;-59
2021/01/09 03:40:27;;;;;;;44.80;27.75;;;;;;;2.46;83.87;98701.50;1664774;86;21067;-59
2021/01/09 03:42:55;;;;;;;50.80;26.93;;;;;;;2.39;83.86;98694.05;1665001;86;21068;-58
2021/01/09 03:45:23;;;;;;;45.03;27.87;;;;;;;2.33;83.87;98699.30;1664961;86;21501;-58
2021/01/09 03:47:51;;;;;;;45.03;26.80;;;;;;;2.35;84.12;98702.77;1665042;86;21201;-58
2021/01/09 03:50:18;;;;;;;47.08;27.20;;;;;;;2.36;83.98;98708.31;1664764;86;21244;-58
2021/01/09 03:52:46;;;;;;;46.05;27.10;;;;;;;2.31;84.09;98703.45;1664852;86;21055;-59
2021/01/09 03:55:13;;;;;;;49.10;28.12;;;;;;;2.33;84.12;98709.06;1664880;86;21073;-57
2021/01/09 03:57:41;;;;;;;46.13;27.27;;;;;;;2.36;84.14;98709.59;1664753;86;21055;-57
2021/01/09 04:00:10;;;;;;;46.65;26.97;;;;;;;2.39;84.20;98704.23;1664850;85;21091;-58
2021/01/09 04:02:39;;;;;;;51.00;28.32;;;;;;;2.43;84.03;98711.98;1664973;86;21537;-59
2021/01/09 04:05:09;;;;;;;43.20;26.30;;;;;;;2.41;83.94;98709.77;1690916;85;21082;-57
2021/01/09 04:07:37;;;;;;;48.55;27.85;;;;;;;2.35;83.97;98711.27;1695546;85;21229;-57
2021/01/09 04:10:07;;;;;;;46.20;26.95;;;;;;;2.34;84.01;98717.56;1695603;85;21430;-58
2021/01/09 04:12:35;;;;;;;50.12;27.87;;;;;;;2.28;84.14;98710.56;1695331;84;21037;-59
2021/01/09 04:15:04;;;;;;;48.13;26.85;;;;;;;2.28;84.24;98714.38;1695693;84;21070;-58
2021/01/09 04:17:33;;;;;;;45.63;26.52;;;;;;;2.30;84.34;98710.63;1695528;85;21198;-58
2021/01/09 04:20:01;;;;;;;46.55;26.68;;;;;;;2.32;84.27;98716.25;1695499;85;21230;-59
2021/01/09 04:22:29;;;;;;;47.53;27.15;;;;;;;2.30;84.25;98711.50;1695556;84;21071;-59
2021/01/09 04:24:57;;;;;;;48.30;27.52;;;;;;;2.31;84.37;98712.36;1695360;84;21095;-57
2021/01/09 04:27:24;;;;;;;47.13;27.15;;;;;;;2.35;84.27;98720.19;1695408;85;21190;-58
2021/01/09 04:29:52;;;;;;;52.08;29.87;;;;;;;2.39;84.31;98722.05;1695628;84;21133;-58
2021/01/09 04:32:20;;;;;;;54.53;30.12;;;;;;;2.44;84.14;98723.89;1695583;84;21075;-58
2021/01/09 04:34:49;;;;;;;52.48;29.40;;;;;;;2.41;84.04;98719.96;1695310;84;21075;-59
2021/01/09 04:37:17;;;;;;;50.75;30.23;;;;;;;2.35;84.17;98716.78;1695433;85;21187;-58
2021/01/09 04:39:44;;;;;;;50.85;29.63;;;;;;;2.31;84.23;98723.41;1695356;84;21087;-58
2021/01/09 04:42:12;;;;;;;45.48;26.80;;;;;;;2.27;84.45;98720.70;1695454;85;21091;-58
2021/01/09 04:44:40;;;;;;;48.68;27.65;;;;;;;2.26;84.50;98722.36;1695325;84;21103;-58
2021/01/09 04:47:09;;;;;;;50.90;28.62;;;;;;;2.28;84.67;98722.02;1695418;85;21079;-58
2021/01/09 04:49:39;;;;;;;52.20;30.25;;;;;;;2.34;84.66;98723.55;1695521;85;21087;-58
2021/01/09 04:52:09;;;;;;;52.33;28.42;;;;;;;2.41;84.65;98718.69;1695332;85;21035;-58
2021/01/09 04:54:39;;;;;;;49.20;28.43;;;;;;;2.45;84.48;98720.15;1672036;85;21079;-59
2021/01/09 04:57:07;;;;;;;49.48;26.97;;;;;;;2.44;84.45;98723.48;1674208;85;21505;-59
2021/01/09 04:59:35;;;;;;;47.27;27.02;;;;;;;2.42;84.41;98730.59;1695626;84;21059;-58
2021/01/09 05:02:04;;;;;;;49.53;28.17;;;;;;;2.40;84.64;98730.56;1695505;85;21206;-59
2021/01/09 05:04:33;;;;;;;50.85;28.10;;;;;;;2.41;84.65;98731.01;1669289;85;21133;-60
2021/01/09 05:07:01;;;;;;;51.63;29.07;;;;;;;2.38;84.63;98733.03;1691663;85;21115;-59
2021/01/09 05:09:30;;;;;;;52.70;28.07;;;;;;;2.39;84.85;98727.16;1691489;85;21213;-59
2021/01/09 05:11:58;;;;;;;49.23;28.30;;;;;;;2.38;84.69;98730.48;1691590;85;21083;-58
2021/01/09 05:14:29;;;;;;;48.90;28.38;;;;;;;2.37;84.88;98735.53;1672160;85;21082;-57
2021/01/09 05:16:59;;;;;;;51.07;28.93;;;;;;;2.42;85.16;98742.95;1692002;85;21118;-58
2021/01/09 05:19:29;;;;;;;48.38;29.20;;;;;;;2.48;85.04;98743.59;1691769;85;21035;-59
2021/01/09 05:21:59;;;;;;;47.95;27.62;;;;;;;2.50;85.21;98737.75;1691547;85;21056;-58
2021/01/09 05:24:28;;;;;;;48.42;28.17;;;;;;;2.50;84.95;98741.98;1691661;85;21209;-59
2021/01/09 05:26:55;;;;;;;46.95;27.52;;;;;;;2.48;85.28;98747.41;1691577;85;21189;-59
2021/01/09 05:29:23;;;;;;;48.78;27.37;;;;;;;2.45;85.32;98755.80;1691649;85;21083;-59
2021/01/09 05:31:52;;;;;;;50.52;27.85;;;;;;;2.42;85.46;98750.59;1691642;85;21490;-59
2021/01/09 05:34:20;;;;;;;49.67;27.80;;;;;;;2.47;85.72;98754.57;1691664;85;21217;-58
2021/01/09 05:36:48;;;;;;;51.42;27.85;;;;;;;2.49;85.53;98755.50;1691536;85;21075;-58
2021/01/09 05:39:15;;;;;;;46.13;28.25;;;;;;;2.48;85.58;98757.60;1691645;85;21035;-59
2021/01/09 05:41:44;;;;;;;49.80;27.80;;;;;;;2.51;85.71;98762.81;1691496;85;21083;-59
2021/01/09 05:44:12;;;;;;;46.92;26.75;;;;;;;2.54;85.59;98765.47;1691544;85;21217;-59
2021/01/09 05:46:41;;;;;;;44.67;26.50;;;;;;;2.55;85.44;98767.23;1691916;85;21201;-59
2021/01/09 05:49:10;;;;;;;44.70;28.00;;;;;;;2.54;85.34;98768.02;1691766;84;21091;-58
2021/01/09 05:51:39;;;;;;;50.03;27.50;;;;;;;2.47;85.25;98771.12;1691582;85;21088;-59
2021/01/09 05:54:08;;;;;;;45.70;27.02;;;;;;;2.45;85.30;98771.08;1691759;85;21210;-59
2021/01/09 05:56:39;;;;;;;50.00;27.90;;;;;;;2.43;85.42;98776.92;1691580;85;21197;-59
2021/01/09 05:59:09;;;;;;;43.73;25.12;;;;;;;2.42;85.46;98776.06;1691845;85;21206;-59
2021/01/09 06:01:40;;;;;;;44.45;27.15;;;;;;;2.43;85.46;98776.52;1672421;85;21213;-59
2021/01/09 06:04:20;;;;;;;43.92;25.80;;;;;;;2.42;85.45;98784.98;1666920;86;21107;-59
2021/01/09 06:07:16;;;;;;;44.13;26.00;;;;;;;2.35;85.26;98790.22;1664674;86;21205;-59
2021/01/09 06:09:49;;;;;;;45.30;25.70;;;;;;;2.31;85.50;98783.24;1664687;86;21059;-60
2021/01/09 06:12:19;;;;;;;44.08;26.05;;;;;;;2.29;85.49;98787.43;1664708;86;21209;-59
2021/01/09 06:14:50;;;;;;;44.23;26.42;;;;;;;2.28;85.60;98787.36;1664689;86;21062;-59
2021/01/09 06:17:22;;;;;;;43.63;25.80;;;;;;;2.33;85.59;98795.64;1664996;85;21204;-59
2021/01/09 06:19:51;;;;;;;47.13;27.05;;;;;;;2.36;85.50;98795.76;1664582;86;21205;-60
2021/01/09 06:22:19;;;;;;;45.83;24.80;;;;;;;2.35;85.26;98800.40;1664608;86;21103;-59
2021/01/09 06:24:48;;;;;;;45.90;25.35;;;;;;;2.26;85.33;98802.97;1656711;86;21102;-60
2021/01/09 06:27:24;;;;;;;45.88;26.87;;;;;;;2.17;85.51;98806.88;1637871;88;21196;-60
2021/01/09 06:29:57;;;;;;;43.52;26.00;;;;;;;2.15;85.67;98810.16;1637535;86;21070;-59
2021/01/09 06:32:29;;;;;;;45.60;25.68;;;;;;;2.13;85.68;98806.69;1652742;86;21686;-60
2021/01/09 06:34:56;;;;;;;;;;;;;;;2.10;85.83;98807.83;1651375;86;21082;-59
2021/01/09 06:37:24;;;;;;;46.80;24.50;;;;;;;2.10;86.00;98811.66;1628113;87;20133;-58
2021/01/09 06:39:52;;;;;;;45.50;24.52;;;;;;;2.12;86.00;98815.14;1644155;86;21015;-60
2021/01/09 06:42:21;;;;;;;45.15;25.88;;;;;;;2.03;86.09;98814.73;1664628;86;21075;-60
2021/01/09 06:44:54;;;;;;;46.23;26.90;;;;;;;2.02;86.18;98820.23;1664702;86;21075;-59
2021/01/09 06:47:28;;;;;;;46.25;24.18;;;;;;;2.05;86.22;98827.13;1659730;85;21098;-60
2021/01/09 06:50:21;;;;;;;43.35;24.43;;;;;;;2.01;86.16;98829.06;1646987;86;21525;-60
2021/01/09 06:52:59;;;;;;;47.53;27.35;;;;;;;1.97;86.23;98827.22;1639092;86;21198;-59
2021/01/09 06:55:44;;;;;;;46.28;25.85;;;;;;;2.00;86.56;98829.88;1647864;85;21164;-59
2021/01/09 06:58:14;;;;;;;48.60;26.33;;;;;;;2.08;86.64;98833.62;1647057;86;21236;-61
2021/01/09 07:00:42;;;;;;;48.68;26.35;;;;;;;2.14;86.58;98833.48;1649322;85;21099;-59
2021/01/09 07:03:19;;;;;;;42.67;24.85;;;;;;;2.19;86.46;98829.87;1664721;85;21201;-59
2021/01/09 07:05:52;;;;;;;49.03;25.97;;;;;;;2.27;86.29;98832.33;1683142;85;21257;-59
2021/01/09 07:08:30;;;;;;;41.68;25.52;;;;;;;2.30;86.22;98828.63;1690505;85;21155;-59
2021/01/09 07:11:04;;;;;;;46.55;26.60;;;;;;;2.32;85.99;98832.52;1690553;85;21086;-60
2021/01/09 07:13:33;;;;;;;45.63;26.30;;;;;;;2.32;85.92;98833.38;1666302;85;21624;-59
2021/01/09 07:16:09;;;;;;;46.48;27.32;;;;;;;2.29;85.74;98838.73;1690533;85;21132;-60
2021/01/09 07:18:48;;;;;;;46.05;26.35;;;;;;;2.24;86.01;98838.56;1690304;85;21071;-60
2021/01/09 07:21:19;;;;;;;47.73;26.48;;;;;;;2.24;86.04;98836.02;1690359;85;21253;-60
2021/01/09 07:23:53;;;;;;;45.70;26.47;;;;;;;2.22;86.08;98841.86;1690612;85;21075;-59
2021/01/09 07:26:23;;;;;;;46.18;26.07;;;;;;;2.23;86.05;98846.98;1686234;85;21068;-59
2021/01/09 07:28:52;;;;;;;46.85;26.48;;;;;;;2.23;85.87;98848.27;1684856;85;21063;-60
2021/01/09 07:31:24;;;;;;;45.28;26.87;;;;;;;2.16;86.07;98842.44;1684748;85;21072;-59
2021/01/09 07:33:58;;;;;;;43.60;25.85;;;;;;;2.17;86.14;98851.84;1625138;88;21085;-60
2021/01/09 07:36:29;;;;;;;50.03;29.20;;;;;;;2.18;86.23;98847.20;1684647;85;21067;-60
2021/01/09 07:39:05;;;;;;;47.25;26.48;;;;;;;2.22;86.19;98847.81;1625277;88;21104;-59
2021/01/09 07:41:37;;;;;;;47.85;28.55;;;;;;;2.24;86.26;98852.57;1684771;85;21048;-60
2021/01/09 07:44:23;;;;;;;45.60;27.52;;;;;;;2.28;86.23;98853.14;1625343;88;21233;-60
2021/01/09 07:47:05;;;;;;;48.87;28.32;;;;;;;2.33;86.18;98852.94;1685084;85;21217;-60
2021/01/09 07:49:37;;;;;;;45.48;27.00;;;;;;;2.30;86.10;98855.36;1624726;88;21106;-59
2021/01/09 07:52:07;;;;;;;48.70;28.73;;;;;;;2.35;86.18;98857.70;1684650;85;21075;-59
2021/01/09 07:54:46;;;;;;;51.42;28.57;;;;;;;2.39;86.06;98855.75;1684820;85;21095;-59
2021/01/09 07:57:25;;;;;;;46.58;27.10;;;;;;;2.45;86.04;98858.09;1625242;88;21044;-59
2021/01/09 08:00:01;;;;;;;45.25;26.75;;;;;;;2.48;85.90;98863.30;1684886;85;21119;-59
2021/01/09 08:02:36;;;;;;;45.92;26.45;;;;;;;2.46;85.72;98863.63;1625120;88;21533;-59
2021/01/09 08:05:14;;;;;;;45.98;27.02;;;;;;;2.39;85.78;98860.84;1687797;85;21245;-60
2021/01/09 08:07:45;;;;;;;50.85;28.60;;;;;;;2.43;85.83;98859.70;1694763;85;21070;-59
2021/01/09 08:10:23;;;;;;;45.63;27.32;;;;;;;2.45;85.65;98862.77;1694741;85;21199;-59
2021/01/09 08:13:04;;;;;;;46.37;25.72;;;;;;;2.41;85.36;98862.57;1694623;85;21131;-59
2021/01/09 08:15:34;;;;;;;46.00;25.62;;;;;;;2.36;85.57;98859.42;1636612;88;21373;-59
2021/01/09 08:18:05;;;;;;;43.95;25.48;;;;;;;2.37;85.34;98865.00;1636590;88;21087;-59
2021/01/09 08:20:34;;;;;;;44.63;25.25;;;;;;;2.34;85.52;98866.16;1670806;86;21198;-59
2021/01/09 08:23:08;;;;;;;46.30;26.42;;;;;;;2.39;85.72;98868.48;1636496;88;21091;-60
2021/01/09 08:25:38;;;;;;;45.55;26.68;;;;;;;2.49;85.90;98862.06;1657319;87;21078;-59
2021/01/09 08:28:06;;;;;;;48.23;27.58;;;;;;;2.59;85.50;98865.45;1636632;88;21056;-60
2021/01/09 08:30:38;;;;;;;46.25;26.40;;;;;;;2.66;85.23;98864.05;1663328;86;21202;-60
2021/01/09 08:33:09;;;;;;;47.60;27.93;;;;;;;2.71;84.98;98859.14;1636886;88;21230;-60
2021/01/09 08:35:48;;;;;;;48.08;26.40;;;;;;;2.73;84.89;98855.84;1636279;87;21464;-59
2021/01/09 08:38:28;;;;;;;45.48;26.68;;;;;;;2.72;84.84;98857.94;1636368;87;21107;-59
2021/01/09 08:40:57;;;;;;;43.28;25.25;;;;;;;2.77;84.73;98855.17;1636362;88;21091;-62
2021/01/09 08:43:26;;;;;;;47.05;25.88;;;;;;;2.77;84.08;98852.63;1636330;88;21585;-60
2021/01/09 08:45:55;;;;;;;42.88;24.77;;;;;;;2.78;84.18;98852.21;1636652;88;21221;-60
2021/01/09 08:48:29;;;;;;;43.30;26.33;;;;;;;2.72;84.04;98854.12;1636501;88;21111;-59
2021/01/09 08:51:14;;;;;;;48.15;26.68;;;;;;;2.74;84.08;98848.66;1636364;88;21235;-60
2021/01/09 08:53:58;;;;;;;45.12;25.17;;;;;;;2.76;84.00;98844.50;1636627;88;21682;-59
2021/01/09 08:56:29;;;;;;;47.03;26.90;;;;;;;2.83;83.83;98845.20;1636420;87;21130;-59
2021/01/09 08:59:10;;;;;;;43.58;25.80;;;;;;;2.89;83.61;98842.44;1636556;87;21553;-69
2021/01/09 09:01:53;;;;;;;44.83;26.07;;;;;;;2.78;83.14;98835.65;1634273;87;21119;-68
2021/01/09 09:04:21;;;;;;;38.13;22.80;;;;;;;2.66;83.31;98846.20;1659526;86;21602;-72
2021/01/09 09:06:56;;;;;;;39.53;22.87;;;;;;;2.66;83.10;98847.89;1651667;86;21153;-69
2021/01/09 09:09:26;;;;;;;41.42;24.30;;;;;;;2.65;83.08;98851.27;1648517;87;21214;-70
2021/01/09 09:11:54;;;;;;;45.78;25.37;;;;;;;2.66;82.84;98846.20;1611668;87;21065;-68
2021/01/09 09:14:23;;;;;;;40.50;23.98;;;;;;;2.68;82.87;98844.59;1648656;87;21088;-69
2021/01/09 09:17:00;;;;;;;39.27;23.50;;;;;;;2.70;82.74;98844.27;1639159;87;21081;-68
2021/01/09 09:19:37;;;;;;;41.65;23.85;;;;;;;2.67;82.37;98837.78;1639109;87;21072;-69
2021/01/09 09:22:06;;;;;;;41.70;22.93;;;;;;;2.64;82.54;98831.26;1648462;87;21230;-70
2021/01/09 09:24:42;;;;;;;41.85;23.00;;;;;;;2.72;82.26;98835.39;1639081;87;21105;-68
2021/01/09 09:27:31;;;;;;;37.63;23.07;;;;;;;2.74;81.74;98832.50;1639289;87;21242;-69
2021/01/09 09:30:09;;;;;;;42.48;24.10;;;;;;;2.77;81.70;98834.78;1654923;86;21114;-67
2021/01/09 09:32:39;;;;;;;40.50;22.87;;;;;;;2.78;81.48;98822.50;1685669;85;21039;-70
2021/01/09 09:35:27;;;;;;;35.50;20.72;;;;;;;2.88;81.68;98831.38;1684509;85;21103;-66
2021/01/09 09:37:59;;;;;;;40.43;22.27;;;;;;;2.93;81.18;98826.47;1682943;85;21068;-69
2021/01/09 09:40:33;;;;;;;31.20;19.23;;;;;;;2.96;80.90;98826.17;1683529;85;21050;-61
2021/01/09 09:43:19;;;;;;;33.30;21.05;;;;;;;3.00;80.58;98824.59;1683063;84;21075;-62
2021/01/09 09:46:03;;;;;;;36.35;20.65;;;;;;;2.96;79.94;98822.34;1685406;83;21102;-61
2021/01/09 09:48:37;;;;;;;31.80;18.98;;;;;;;2.94;79.92;98815.45;1684661;83;21518;-61
2021/01/09 09:51:12;;;;;;;30.05;18.07;;;;;;;2.92;79.23;98815.78;1687343;84;21248;-61
2021/01/09 09:53:42;;;;;;;30.05;17.80;;;;;;;2.88;78.87;98812.67;1682623;85;21082;-61
2021/01/09 09:56:20;;;;;;;29.25;18.15;;;;;;;2.88;78.80;98811.40;1681312;85;21217;-62
2021/01/09 09:59:00;;;;;;;30.02;18.65;;;;;;;2.68;78.16;98810.20;1686193;85;21083;-61
2021/01/09 10:01:29;;;;;;;28.35;17.25;;;;;;;2.60;78.73;98811.59;1683363;85;21229;-61
2021/01/09 10:03:58;;;;;;;33.35;17.87;;;;;;;2.56;78.45;98812.26;1685798;85;21217;-61
2021/01/09 10:06:38;;;;;;;29.25;17.45;;;;;;;2.45;78.74;98808.42;1679382;85;21244;-61
2021/01/09 10:09:18;;;;;;;35.38;19.62;;;;;;;2.40;79.04;98819.69;1619287;88;21105;-61
2021/01/09 10:11:52;;;;;;;33.05;18.42;;;;;;;2.48;79.45;98813.63;1618756;88;21235;-61
2021/01/09 10:14:22;;;;;;;31.35;17.30;;;;;;;2.60;78.77;98811.59;1617202;88;21023;-61
2021/01/09 10:16:50;;;;;;;31.82;18.75;;;;;;;2.61;78.15;98813.31;1619076;88;21144;-62
2021/01/09 10:19:18;;;;;;;34.53;20.02;;;;;;;2.56;78.15;98812.26;1661945;86;21224;-61
2021/01/09 10:21:47;;;;;;;34.15;19.25;;;;;;;2.54;78.46;98810.91;1623916;88;21064;-61
2021/01/09 10:24:15;;;;;;;28.95;17.85;;;;;;;2.63;78.72;98807.88;1617036;88;21277;-61
2021/01/09 10:26:43;;;;;;;31.23;19.07;;;;;;;2.74;78.22;98807.88;1677750;85;21039;-60
2021/01/09 10:29:12;;;;;;;31.20;18.65;;;;;;;2.76;77.70;98799.91;1681649;85;21190;-60
2021/01/09 10:31:40;;;;;;;33.67;20.20;;;;;;;2.65;77.83;98798.63;1678079;85;21067;-60
2021/01/09 10:34:09;;;;;;;35.00;20.32;;;;;;;2.63;78.00;98802.78;1678311;85;21230;-59
2021/01/09 10:36:39;;;;;;;30.52;18.82;;;;;;;2.55;77.74;98799.07;1680206;85;21138;-60
2021/01/09 10:39:09;;;;;;;30.77;18.57;;;;;;;2.46;77.70;98806.33;1679719;85;21115;-60
2021/01/09 10:41:36;;;;;;;33.63;19.37;;;;;;;2.43;77.15;98807.08;1676793;85;21115;-60
2021/01/09 10:44:06;;;;;;;32.25;17.62;;;;;;;2.42;76.58;98807.00;1678702;85;21048;-60
2021/01/09 10:46:34;;;;;;;33.23;18.75;;;;;;;2.27;76.88;98806.86;1682574;85;21446;-60
2021/01/09 10:49:02;;;;;;;31.05;18.60;;;;;;;2.15;77.28;98798.30;1680411;85;21036;-60
2021/01/09 10:51:30;;;;;;;31.33;20.12;;;;;;;2.10;77.56;98798.92;1683155;85;21202;-60
2021/01/09 10:54:01;;;;;;;32.45;19.70;;;;;;;2.08;77.76;98795.03;1679161;85;21079;-60
2021/01/09 10:56:28;;;;;;;32.55;19.48;;;;;;;2.13;77.88;98805.41;1676939;85;21115;-60
2021/01/09 10:58:56;;;;;;;34.88;19.85;;;;;;;2.29;77.86;98795.45;1678940;85;21462;-60
2021/01/09 11:01:24;;;;;;;31.55;18.25;;;;;;;2.31;77.58;98802.34;1680715;85;21174;-60
2021/01/09 11:03:52;;;;;;;33.58;19.70;;;;;;;2.33;77.44;98802.42;1681167;85;21206;-61
2021/01/09 11:06:21;;;;;;;34.15;18.62;;;;;;;2.30;76.77;98783.20;1684509;85;21143;-60
2021/01/09 11:08:50;;;;;;;32.28;18.52;;;;;;;2.20;76.54;98804.00;1690634;85;21087;-61
2021/01/09 11:11:19;;;;;;;30.65;17.98;;;;;;;2.15;76.33;98793.21;1693949;85;21553;-60
2021/01/09 11:13:48;;;;;;;36.88;19.77;;;;;;;2.18;76.18;98801.38;1689883;85;21177;-60
2021/01/09 11:16:24;;;;;;;32.33;16.70;;;;;;;2.23;76.18;98796.48;1690532;85;21522;-60
2021/01/09 11:18:52;;;;;;;34.20;19.82;;;;;;;2.24;75.39;98794.39;1684123;85;21228;-60
2021/01/09 11:21:20;;;;;;;35.85;19.42;;;;;;;2.14;75.31;98795.71;1689907;84;21094;-60
2021/01/09 11:23:48;;;;;;;35.70;19.77;;;;;;;2.13;75.85;98802.86;1690080;85;21126;-60
2021/01/09 11:26:26;;;;;;;32.23;18.92;;;;;;;2.23;75.82;98803.71;1693901;85;21213;-60
2021/01/09 11:28:55;;;;;;;30.05;17.70;;;;;;;2.36;74.98;98799.98;1688161;85;21043;-60
2021/01/09 11:31:25;;;;;;;33.45;18.95;;;;;;;2.24;74.36;98799.48;1694149;85;21071;-60
2021/01/09 11:33:53;;;;;;;29.82;16.73;;;;;;;2.15;74.58;98803.39;1692382;85;21613;-59
2021/01/09 11:36:21;;;;;;;31.80;19.50;;;;;;;2.10;74.21;98807.83;1694600;85;21130;-60
2021/01/09 11:38:49;;;;;;;31.95;17.42;;;;;;;1.99;74.20;98802.71;1694674;85;21160;-59
2021/01/09 11:41:18;;;;;;;33.35;18.23;;;;;;;1.99;74.34;98804.84;1643132;86;21098;-61
2021/01/09 11:43:45;;;;;;;30.85;17.77;;;;;;;2.07;74.05;98810.26;1642930;86;21115;-60